In Rescue
 
Open Full Screen Window  High Contrast Mode
Wind Gusting 00 knots
06
July 22, 2019 3:17 PM CDT
Weather Information
Wind Direction
  320 °
Wind Speed
  06 kt (7 mph)
Wind Gust
  00 kt (0 mph)
Altimeter
30.21 in
Visibility
10 SM
Temperature
24° C
75° F
Dewpoint
11° C
52° F
Humidity
44%
1hr Rain Fall
00.00 in.
24hr Rain Fall
00.00 in.
Sky Condition
Scattered @ 7,000 ft
Scattered @ 6,000 ft
VFR

METAR KROS 222017Z AUTO 32006KT 10SM SCT060 SCT070 24/11 A3021 RMK AO2 T02380114

FAA Disclaimer: The data displayed is for advisory purposes only and is not to be used for flight planning or operations.